Time;durP1;ratioP1;P1;durP2;ratioP2;P2;SDS_P1;SDS_P2;PMS_P1;PMS_P2;Temp;Humidity;BMP_temperature;BMP_pressure;BME280_temperature;BME280_humidity;BME280_pressure;Samples;Min_cycle;Max_cycle;Signal;HPM_P1;HPM_P2
2023/03/18 00:01:25;;;;;;;9.45;5.63;;;6.10;99.90;;;;;;4966729;28;20034;-78
2023/03/18 00:03:51;;;;;;;11.60;6.13;;;6.10;99.90;;;;;;4977450;28;20130;-78
2023/03/18 00:06:19;;;;;;;8.77;5.88;;;6.10;99.90;;;;;;4975782;28;20066;-77
2023/03/18 00:08:46;;;;;;;11.20;5.13;;;6.20;99.90;;;;;;4979971;28;20038;-78
2023/03/18 00:11:14;;;;;;;13.13;6.03;;;6.20;99.90;;;;;;4969585;28;20034;-78
2023/03/18 00:13:41;;;;;;;9.90;6.70;;;6.30;99.90;;;;;;4970405;28;20042;-79
2023/03/18 00:16:10;;;;;;;8.52;5.50;;;6.30;99.70;;;;;;4966616;28;20567;-78
2023/03/18 00:18:38;;;;;;;10.60;6.18;;;6.40;99.10;;;;;;4974258;28;20035;-78
2023/03/18 00:21:04;;;;;;;13.55;6.55;;;6.40;99.30;;;;;;4950234;28;20644;-78
2023/03/18 00:23:31;;;;;;;11.77;6.45;;;6.50;99.10;;;;;;4934954;28;20027;-77
2023/03/18 00:25:59;;;;;;;8.98;5.90;;;6.60;99.20;;;;;;4975116;28;20045;-78
2023/03/18 00:28:26;;;;;;;12.10;6.30;;;6.50;99.70;;;;;;4971938;28;20105;-78
2023/03/18 00:30:53;;;;;;;10.20;6.20;;;6.50;99.30;;;;;;4965224;28;20058;-78
2023/03/18 00:33:19;;;;;;;10.50;6.15;;;6.50;99.00;;;;;;4959475;28;20042;-78
2023/03/18 00:35:46;;;;;;;11.02;6.15;;;6.50;98.90;;;;;;4981224;28;20046;-79
2023/03/18 00:38:20;;;;;;;13.75;6.57;;;6.50;99.10;;;;;;4970316;28;20134;-79
2023/03/18 00:40:52;;;;;;;12.70;6.47;;;6.60;99.50;;;;;;4973124;28;20027;-79
2023/03/18 00:43:21;;;;;;;9.68;5.90;;;6.50;99.90;;;;;;4970461;28;20500;-79
2023/03/18 00:45:49;;;;;;;10.85;6.35;;;6.40;99.90;;;;;;4972594;28;20392;-79
2023/03/18 00:48:16;;;;;;;13.80;7.00;;;6.40;99.90;;;;;;4979160;28;20034;-78
2023/03/18 00:50:44;;;;;;;11.40;6.03;;;6.30;99.90;;;;;;4986887;28;20027;-79
2023/03/18 00:53:10;;;;;;;10.35;5.65;;;6.30;99.90;;;;;;4956003;28;20031;-79
2023/03/18 00:55:36;;;;;;;8.18;5.60;;;6.20;99.90;;;;;;4974930;28;20117;-79
2023/03/18 00:58:02;;;;;;;11.52;6.05;;;6.20;99.90;;;;;;4970989;28;20031;-79
2023/03/18 01:00:28;;;;;;;7.78;5.47;;;6.20;99.90;;;;;;4965224;28;20037;-79
2023/03/18 01:02:55;;;;;;;11.38;6.05;;;6.10;99.90;;;;;;4968853;28;20030;-79
2023/03/18 01:05:21;;;;;;;9.27;5.68;;;6.10;99.90;;;;;;4967596;28;20066;-79
2023/03/18 01:07:48;;;;;;;8.05;5.53;;;6.10;99.90;;;;;;4961415;28;20499;-79
2023/03/18 01:10:15;;;;;;;11.32;5.72;;;6.10;99.90;;;;;;4974827;28;20587;-79
2023/03/18 01:12:42;;;;;;;12.05;5.88;;;6.10;99.90;;;;;;4984531;28;20045;-79
2023/03/18 01:15:11;;;;;;;9.05;5.95;;;6.10;99.90;;;;;;4971715;28;20034;-79
2023/03/18 01:17:37;;;;;;;11.32;5.75;;;6.20;99.90;;;;;;4991067;28;20066;-79
2023/03/18 01:20:04;;;;;;;10.50;5.82;;;6.20;99.90;;;;;;4985493;28;20027;-79
2023/03/18 01:22:31;;;;;;;12.15;6.47;;;6.20;99.90;;;;;;4972040;28;20049;-79
2023/03/18 01:24:57;;;;;;;9.57;5.63;;;6.10;99.90;;;;;;4971423;28;20037;-79
2023/03/18 01:27:29;;;;;;;8.95;5.80;;;6.10;99.90;;;;;;4976877;28;20039;-79
2023/03/18 01:29:57;;;;;;;10.18;6.40;;;6.00;99.90;;;;;;4977364;28;20118;-79
2023/03/18 01:32:23;;;;;;;12.60;6.10;;;6.00;99.90;;;;;;4972600;28;20531;-79
2023/03/18 01:34:49;;;;;;;10.35;6.13;;;5.90;99.90;;;;;;4974503;28;20066;-79
2023/03/18 01:37:15;;;;;;;9.63;5.63;;;5.90;99.90;;;;;;4975745;28;20623;-79
2023/03/18 01:39:45;;;;;;;11.57;5.88;;;6.00;99.90;;;;;;4973484;28;20365;-78
2023/03/18 01:42:19;;;;;;;9.75;6.32;;;5.90;99.90;;;;;;4976269;28;20483;-78
2023/03/18 01:44:48;;;;;;;9.88;6.18;;;5.90;99.90;;;;;;4964645;28;20027;-78
2023/03/18 01:47:16;;;;;;;13.52;6.00;;;5.80;99.90;;;;;;4959543;28;20065;-77
2023/03/18 01:49:51;;;;;;;9.55;5.63;;;5.80;99.90;;;;;;4957965;28;20034;-79
2023/03/18 01:52:24;;;;;;;10.02;6.07;;;5.80;99.90;;;;;;4978583;28;20030;-79
2023/03/18 01:55:10;;;;;;;9.57;5.40;;;5.80;99.90;;;;;;4975455;28;20423;-79
2023/03/18 01:57:36;;;;;;;8.65;5.55;;;5.70;99.90;;;;;;4972438;28;20030;-80
2023/03/18 02:00:04;;;;;;;10.15;5.85;;;5.70;99.90;;;;;;4969177;28;20566;-79
2023/03/18 02:02:41;;;;;;;11.10;6.47;;;5.60;99.90;;;;;;4969724;28;20045;-80
2023/03/18 02:05:10;;;;;;;8.85;5.68;;;5.70;99.90;;;;;;4974411;28;20031;-79
2023/03/18 02:07:37;;;;;;;9.98;5.72;;;5.80;99.90;;;;;;4955741;28;20034;-80
2023/03/18 02:10:10;;;;;;;11.43;6.05;;;5.80;99.90;;;;;;4953879;28;20087;-79
2023/03/18 02:12:38;;;;;;;10.48;5.90;;;5.80;99.90;;;;;;4968318;28;20038;-78
2023/03/18 02:15:13;;;;;;;10.75;5.53;;;5.80;99.90;;;;;;4973978;28;20034;-79
2023/03/18 02:17:52;;;;;;;8.77;5.68;;;5.80;99.90;;;;;;4947613;28;20531;-78
2023/03/18 02:20:42;;;;;;;9.77;6.30;;;5.80;99.90;;;;;;4976871;28;20032;-78
2023/03/18 02:24:00;;;;;;;10.68;6.22;;;5.70;99.90;;;;;;4963618;28;20037;-78
2023/03/18 02:26:42;;;;;;;9.48;6.15;;;5.70;99.90;;;;;;4971056;28;20614;-78
2023/03/18 02:29:13;;;;;;;10.10;6.15;;;5.60;99.90;;;;;;4970815;28;20069;-78
2023/03/18 02:31:49;;;;;;;8.98;5.75;;;5.50;99.90;;;;;;4962563;28;20041;-79
2023/03/18 02:34:24;;;;;;;9.23;5.72;;;5.50;99.90;;;;;;4982614;28;20101;-80
2023/03/18 02:36:53;;;;;;;10.38;6.60;;;5.50;99.90;;;;;;4980471;28;20131;-79
2023/03/18 02:39:21;;;;;;;9.65;5.97;;;5.40;99.90;;;;;;4985723;28;20087;-80
2023/03/18 02:41:47;;;;;;;12.95;5.72;;;5.40;99.90;;;;;;4986267;28;20023;-79
2023/03/18 02:44:14;;;;;;;11.20;5.70;;;5.30;99.90;;;;;;4979965;28;20026;-80
2023/03/18 02:47:05;;;;;;;12.32;6.55;;;5.30;99.90;;;;;;4981709;28;20380;-79
2023/03/18 02:49:31;;;;;;;9.90;6.28;;;5.30;99.90;;;;;;4984913;28;20074;-79
2023/03/18 02:51:57;;;;;;;7.20;5.70;;;5.20;99.90;;;;;;4956085;28;20546;-79
2023/03/18 02:54:27;;;;;;;13.20;6.10;;;5.20;99.90;;;;;;4960322;28;20322;-79
2023/03/18 02:56:53;;;;;;;10.90;6.03;;;5.20;99.90;;;;;;4971555;28;20436;-79
2023/03/18 02:59:20;;;;;;;10.98;6.43;;;5.20;99.90;;;;;;4985052;28;20040;-79
2023/03/18 03:01:49;;;;;;;9.88;5.90;;;5.20;99.90;;;;;;4976262;28;20047;-78
2023/03/18 03:04:15;;;;;;;9.00;5.80;;;5.20;99.90;;;;;;4964156;28;20037;-79
2023/03/18 03:06:42;;;;;;;8.15;5.68;;;5.20;99.90;;;;;;4978892;28;20039;-78
2023/03/18 03:09:12;;;;;;;9.30;5.85;;;5.10;99.90;;;;;;4967832;28;20046;-79
2023/03/18 03:11:39;;;;;;;11.98;5.78;;;5.10;99.90;;;;;;4973901;28;20042;-79
2023/03/18 03:14:12;;;;;;;9.95;6.03;;;5.10;99.90;;;;;;4973609;28;20510;-79
2023/03/18 03:16:39;;;;;;;10.10;5.65;;;5.10;99.90;;;;;;4967829;28;20029;-80
2023/03/18 03:19:05;;;;;;;10.30;5.47;;;5.00;99.90;;;;;;4957754;28;20031;-78
2023/03/18 03:21:34;;;;;;;9.55;5.45;;;5.00;99.90;;;;;;4975210;28;20110;-79
2023/03/18 03:24:02;;;;;;;9.98;5.82;;;5.00;99.90;;;;;;4955411;28;20054;-79
2023/03/18 03:26:29;;;;;;;10.02;5.90;;;5.00;99.90;;;;;;4966971;28;20557;-80
2023/03/18 03:28:55;;;;;;;9.98;5.68;;;5.00;99.90;;;;;;4971007;28;20039;-80
2023/03/18 03:31:22;;;;;;;10.70;5.97;;;5.00;99.90;;;;;;4975572;28;20515;-78
2023/03/18 03:33:48;;;;;;;11.05;6.00;;;4.90;99.90;;;;;;4969845;28;20138;-79
2023/03/18 03:36:16;;;;;;;12.40;6.35;;;4.90;99.90;;;;;;4969866;28;20104;-79
2023/03/18 03:38:43;;;;;;;10.23;5.75;;;5.00;99.90;;;;;;4968970;28;20050;-78
2023/03/18 03:41:10;;;;;;;9.82;5.57;;;5.00;99.90;;;;;;4975686;28;20364;-78
2023/03/18 03:43:39;;;;;;;9.32;6.10;;;5.00;99.90;;;;;;4957274;28;20031;-78
2023/03/18 03:46:06;;;;;;;9.13;5.60;;;5.00;99.90;;;;;;4968816;28;20302;-78
2023/03/18 03:48:33;;;;;;;10.77;5.78;;;5.00;99.90;;;;;;4968500;28;20034;-80
2023/03/18 03:50:59;;;;;;;8.85;5.80;;;5.00;99.90;;;;;;4980678;28;20443;-79
2023/03/18 03:53:25;;;;;;;13.40;6.03;;;5.10;99.90;;;;;;4956237;28;20129;-78
2023/03/18 03:55:52;;;;;;;10.05;5.38;;;5.20;99.90;;;;;;4968739;28;20031;-79
2023/03/18 03:58:18;;;;;;;8.52;5.13;;;5.20;99.90;;;;;;4988317;28;20030;-80
2023/03/18 04:00:46;;;;;;;10.25;5.60;;;5.30;99.90;;;;;;4956913;28;20054;-78
2023/03/18 04:03:12;;;;;;;11.00;5.70;;;5.20;99.90;;;;;;4971717;28;20050;-79
2023/03/18 04:05:38;;;;;;;10.65;5.80;;;5.20;99.90;;;;;;4954200;28;20048;-79
2023/03/18 04:08:05;;;;;;;10.82;5.20;;;5.10;99.90;;;;;;4975581;28;20145;-78
2023/03/18 04:10:36;;;;;;;8.65;5.38;;;5.20;99.90;;;;;;4963928;28;20074;-80
2023/03/18 04:13:04;;;;;;;8.70;5.45;;;5.10;99.90;;;;;;4983191;28;20062;-80
2023/03/18 04:15:30;;;;;;;8.90;5.75;;;5.10;99.90;;;;;;4976360;28;20395;-80
2023/03/18 04:18:05;;;;;;;8.57;5.82;;;5.10;99.90;;;;;;4977148;28;20558;-78
2023/03/18 04:20:36;;;;;;;10.13;5.75;;;5.00;99.90;;;;;;4967166;28;20035;-79
2023/03/18 04:23:06;;;;;;;10.10;5.38;;;5.00;99.90;;;;;;4980795;28;20367;-80
2023/03/18 04:25:34;;;;;;;8.77;5.10;;;5.00;99.90;;;;;;4953040;28;20038;-80
2023/03/18 04:28:00;;;;;;;10.18;5.75;;;4.90;99.90;;;;;;4977461;28;20034;-80
2023/03/18 04:30:27;;;;;;;11.13;5.47;;;4.90;99.90;;;;;;4961087;28;20041;-80
2023/03/18 04:33:02;;;;;;;9.57;5.05;;;5.00;99.90;;;;;;4976627;28;20591;-78
2023/03/18 04:35:29;;;;;;;8.93;5.80;;;4.90;99.90;;;;;;4975068;28;20034;-80
2023/03/18 04:37:56;;;;;;;9.15;4.97;;;4.90;99.90;;;;;;4951653;28;20100;-79
2023/03/18 04:40:23;;;;;;;8.85;5.40;;;4.90;99.90;;;;;;4987369;28;20037;-80
2023/03/18 04:42:49;;;;;;;8.88;5.18;;;5.00;99.90;;;;;;4960480;28;20031;-80
2023/03/18 04:45:17;;;;;;;11.38;4.90;;;5.10;99.90;;;;;;4962019;28;20125;-80
2023/03/18 04:47:44;;;;;;;10.40;5.63;;;5.10;99.90;;;;;;4975650;28;20122;-79
2023/03/18 04:50:12;;;;;;;11.68;6.00;;;5.10;99.90;;;;;;4974094;28;20023;-79
2023/03/18 04:52:40;;;;;;;9.05;5.72;;;5.00;99.90;;;;;;4990565;28;20096;-78
2023/03/18 04:55:08;;;;;;;12.88;5.85;;;5.00;99.90;;;;;;4970723;28;20561;-79
2023/03/18 04:57:37;;;;;;;10.63;5.55;;;5.00;99.90;;;;;;4971294;28;20058;-79
2023/03/18 05:00:10;;;;;;;8.60;5.40;;;5.00;99.90;;;;;;4973324;28;20027;-80
2023/03/18 05:02:38;;;;;;;11.63;5.72;;;5.00;99.90;;;;;;4956539;28;20026;-79
2023/03/18 05:05:05;;;;;;;10.18;6.03;;;5.00;99.90;;;;;;4973920;28;20162;-79
2023/03/18 05:07:35;;;;;;;10.35;6.22;;;5.00;99.90;;;;;;4960278;28;20042;-78
2023/03/18 05:10:08;;;;;;;10.20;5.40;;;5.00;99.90;;;;;;4976057;28;20062;-79
2023/03/18 05:12:35;;;;;;;11.48;5.50;;;4.90;99.90;;;;;;4972641;28;20035;-78
2023/03/18 05:15:03;;;;;;;12.00;6.32;;;4.70;99.90;;;;;;4967303;28;20034;-79
2023/03/18 05:17:29;;;;;;;7.90;5.20;;;4.60;99.90;;;;;;4958567;28;20129;-78
2023/03/18 05:19:59;;;;;;;9.43;6.07;;;4.50;99.90;;;;;;4975964;28;20026;-79
2023/03/18 05:22:25;;;;;;;8.23;5.40;;;4.50;99.90;;;;;;4952506;28;20042;-78
2023/03/18 05:24:58;;;;;;;9.60;5.60;;;4.50;99.90;;;;;;4973163;28;20039;-78
2023/03/18 05:27:27;;;;;;;10.35;5.75;;;4.50;99.90;;;;;;4973160;28;20041;-79
2023/03/18 05:30:06;;;;;;;10.63;6.03;;;4.40;99.90;;;;;;4971052;28;20098;-79
2023/03/18 05:32:53;;;;;;;10.63;5.32;;;4.50;99.90;;;;;;4982569;28;20077;-78
2023/03/18 05:35:26;;;;;;;11.30;6.47;;;4.50;99.90;;;;;;4974137;28;20490;-78
2023/03/18 05:37:54;;;;;;;7.40;5.43;;;4.50;99.90;;;;;;4960772;28;20031;-79
2023/03/18 05:40:20;;;;;;;10.70;5.82;;;4.50;99.90;;;;;;4967560;28;20407;-79
2023/03/18 05:42:59;;;;;;;9.30;5.63;;;4.50;99.90;;;;;;4962818;28;20027;-78
2023/03/18 05:45:36;;;;;;;9.13;5.72;;;4.50;99.90;;;;;;4965433;28;20077;-79
2023/03/18 05:48:03;;;;;;;9.57;5.70;;;4.50;99.90;;;;;;4963165;28;20038;-77
2023/03/18 05:50:40;;;;;;;10.27;6.07;;;4.50;99.90;;;;;;4964276;28;20050;-78
2023/03/18 05:53:15;;;;;;;11.70;6.57;;;4.50;99.90;;;;;;4958310;28;20085;-79
2023/03/18 05:55:42;;;;;;;13.05;5.65;;;4.60;99.90;;;;;;4968288;28;20041;-78
2023/03/18 05:58:09;;;;;;;8.52;5.50;;;4.50;99.90;;;;;;4963859;28;20035;-81
2023/03/18 06:00:37;;;;;;;9.77;5.70;;;4.60;99.90;;;;;;4939137;28;20122;-78
2023/03/18 06:03:04;;;;;;;8.63;5.43;;;4.60;99.90;;;;;;4972131;28;20031;-78
2023/03/18 06:05:29;;;;;;;9.88;6.18;;;4.60;99.90;;;;;;4973778;28;20063;-79
2023/03/18 06:07:56;;;;;;;14.93;6.10;;;4.60;99.90;;;;;;4959839;28;20026;-80
2023/03/18 06:10:23;;;;;;;13.15;6.10;;;4.60;99.90;;;;;;4972045;28;20302;-79
2023/03/18 06:12:50;;;;;;;11.55;6.20;;;4.60;99.90;;;;;;4975522;28;20369;-80
2023/03/18 06:15:17;;;;;;;11.45;6.10;;;4.50;99.90;;;;;;4971794;28;20035;-79
2023/03/18 06:17:44;;;;;;;9.18;6.13;;;4.60;99.90;;;;;;4974207;28;20113;-80
2023/03/18 06:20:13;;;;;;;10.63;6.35;;;4.50;99.90;;;;;;4972705;28;20027;-78
2023/03/18 06:22:39;;;;;;;10.25;6.03;;;4.50;99.90;;;;;;4960550;28;20523;-80
2023/03/18 06:25:07;;;;;;;11.60;6.55;;;4.60;99.90;;;;;;4951265;28;20464;-79
2023/03/18 06:27:36;;;;;;;9.60;6.05;;;4.70;99.90;;;;;;4967227;28;20043;-77
2023/03/18 06:30:04;;;;;;;11.02;6.65;;;4.80;99.90;;;;;;4975465;28;20521;-78
2023/03/18 06:32:33;;;;;;;9.10;6.10;;;4.90;99.90;;;;;;4967244;28;20031;-79
2023/03/18 06:35:00;;;;;;;14.25;6.65;;;5.00;99.90;;;;;;4968907;28;20042;-76
2023/03/18 06:37:27;;;;;;;10.45;6.70;;;5.10;99.90;;;;;;4957511;28;20026;-80
2023/03/18 06:39:53;;;;;;;13.32;7.00;;;5.20;99.90;;;;;;4978859;28;20023;-79
2023/03/18 06:42:19;;;;;;;11.45;6.63;;;5.30;99.90;;;;;;4982563;28;20027;-77
2023/03/18 06:45:09;;;;;;;11.38;5.28;;;5.40;99.90;;;;;;4974599;28;20039;-79
2023/03/18 06:47:45;;;;;;;10.80;6.07;;;5.60;99.90;;;;;;4973941;28;20035;-79
2023/03/18 06:50:12;;;;;;;9.98;5.65;;;5.60;99.90;;;;;;4955858;28;20447;-78
2023/03/18 06:52:38;;;;;;;10.43;5.65;;;5.60;99.90;;;;;;4964091;28;20507;-79
2023/03/18 06:55:09;;;;;;;8.85;5.72;;;5.70;99.90;;;;;;4946696;28;20027;-80
2023/03/18 06:57:39;;;;;;;8.57;5.32;;;5.80;99.90;;;;;;4974572;28;20031;-79
2023/03/18 07:00:07;;;;;;;10.30;5.97;;;5.80;99.90;;;;;;4943436;28;20026;-79
2023/03/18 07:02:33;;;;;;;9.93;5.65;;;5.90;99.90;;;;;;4960557;28;20167;-79
2023/03/18 07:05:00;;;;;;;9.25;5.63;;;5.90;99.90;;;;;;4973558;28;20046;-77
2023/03/18 07:07:27;;;;;;;8.38;5.78;;;5.90;99.90;;;;;;4948753;28;20031;-80
2023/03/18 07:09:54;;;;;;;11.88;5.70;;;6.00;99.90;;;;;;4972443;28;20121;-80
2023/03/18 07:12:20;;;;;;;7.63;5.07;;;6.10;99.90;;;;;;4966520;28;20097;-80
2023/03/18 07:14:46;;;;;;;8.80;5.70;;;6.20;99.90;;;;;;4970380;28;20101;-80
2023/03/18 07:17:13;;;;;;;8.52;5.30;;;6.40;99.90;;;;;;4951518;28;20435;-80
2023/03/18 07:19:40;;;;;;;11.10;5.90;;;6.50;99.90;;;;;;4959985;28;20030;-80
2023/03/18 07:22:06;;;;;;;8.98;5.10;;;6.70;99.90;;;;;;4973566;28;20030;-80
2023/03/18 07:24:33;;;;;;;8.63;5.30;;;7.00;99.90;;;;;;4974630;28;20036;-80
2023/03/18 07:26:59;;;;;;;10.38;5.72;;;7.20;99.90;;;;;;4944386;28;20031;-80
2023/03/18 07:29:25;;;;;;;10.73;5.32;;;7.30;99.90;;;;;;4981748;28;20053;-79
2023/03/18 07:31:50;;;;;;;8.52;5.20;;;7.30;99.90;;;;;;4980591;28;20030;-78
2023/03/18 07:34:17;;;;;;;7.47;5.13;;;7.30;99.90;;;;;;4980890;28;20038;-78
2023/03/18 07:36:43;;;;;;;10.10;5.03;;;7.30;99.90;;;;;;4977884;28;20403;-80
2023/03/18 07:39:10;;;;;;;11.77;5.72;;;7.30;99.90;;;;;;4972233;28;20503;-80
2023/03/18 07:41:36;;;;;;;11.30;5.20;;;7.30;99.90;;;;;;4977193;28;20102;-78
2023/03/18 07:44:03;;;;;;;7.00;5.30;;;7.30;99.90;;;;;;4974879;28;20042;-79
2023/03/18 07:46:29;;;;;;;9.48;5.25;;;7.30;99.80;;;;;;4967659;28;20041;-78
2023/03/18 07:48:55;;;;;;;9.57;4.93;;;7.40;99.60;;;;;;4972218;28;20041;-77
2023/03/18 07:51:21;;;;;;;10.68;5.57;;;7.40;99.70;;;;;;4968550;28;20102;-78
2023/03/18 07:53:47;;;;;;;10.93;5.45;;;7.40;99.90;;;;;;4962769;28;20078;-78
2023/03/18 07:56:13;;;;;;;10.85;5.05;;;7.50;99.90;;;;;;4972750;28;20035;-78
2023/03/18 07:58:39;;;;;;;7.25;5.03;;;7.50;99.00;;;;;;4978043;28;20096;-78
2023/03/18 08:01:06;;;;;;;8.02;4.97;;;7.50;99.70;;;;;;4977685;28;20107;-78
2023/03/18 08:03:32;;;;;;;6.88;4.80;;;7.70;99.90;;;;;;4982717;28;20034;-79
2023/03/18 08:05:58;;;;;;;10.18;6.78;;;7.80;99.90;;;;;;4973240;28;20527;-78
2023/03/18 08:08:24;;;;;;;9.43;5.63;;;8.10;99.90;;;;;;4969351;28;20043;-79
2023/03/18 08:10:53;;;;;;;8.80;5.10;;;8.20;99.80;;;;;;4940601;28;20039;-78
2023/03/18 08:13:19;;;;;;;7.90;5.43;;;8.40;98.10;;;;;;4971710;28;20038;-76
2023/03/18 08:15:45;;;;;;;8.60;5.03;;;8.60;97.90;;;;;;4963952;28;20027;-79
2023/03/18 08:18:11;;;;;;;8.73;5.40;;;8.50;97.10;;;;;;4977647;28;20107;-79
2023/03/18 08:20:37;;;;;;;10.40;5.60;;;8.60;97.00;;;;;;4960113;28;20377;-80
2023/03/18 08:23:02;;;;;;;9.50;5.35;;;8.60;97.70;;;;;;4986219;28;20548;-80
2023/03/18 08:25:28;;;;;;;10.52;4.82;;;8.50;97.00;;;;;;4969828;28;20376;-77
2023/03/18 08:27:55;;;;;;;15.35;5.40;;;8.60;97.40;;;;;;4971031;28;20031;-79
2023/03/18 08:30:24;;;;;;;12.43;5.60;;;8.60;96.60;;;;;;4974400;28;20035;-75
2023/03/18 08:32:50;;;;;;;10.27;5.45;;;8.60;97.50;;;;;;4979074;28;20165;-76
2023/03/18 08:35:16;;;;;;;8.60;5.22;;;8.70;97.60;;;;;;4960552;28;20591;-78
2023/03/18 08:37:42;;;;;;;10.80;5.78;;;8.80;96.60;;;;;;4977175;28;20123;-77
2023/03/18 08:40:08;;;;;;;12.38;5.97;;;8.80;96.90;;;;;;4968043;28;20065;-75
2023/03/18 08:42:34;;;;;;;10.88;5.53;;;8.80;96.10;;;;;;4980881;28;20030;-77
2023/03/18 08:45:00;;;;;;;10.95;5.50;;;8.80;96.80;;;;;;4951718;28;20157;-79
2023/03/18 08:47:28;;;;;;;8.82;4.97;;;8.90;96.50;;;;;;4979378;28;20035;-79
2023/03/18 08:49:54;;;;;;;11.80;5.35;;;8.90;96.10;;;;;;4950857;28;20363;-79
2023/03/18 08:52:21;;;;;;;9.52;5.50;;;8.90;96.10;;;;;;4965834;28;20110;-78
2023/03/18 08:54:47;;;;;;;8.43;5.35;;;9.00;96.10;;;;;;4973424;28;20027;-79
2023/03/18 08:57:12;;;;;;;10.82;5.55;;;9.00;96.60;;;;;;4988428;28;20033;-78
2023/03/18 08:59:38;;;;;;;9.23;5.38;;;9.10;96.10;;;;;;4979023;28;20030;-79
2023/03/18 09:02:04;;;;;;;12.27;5.72;;;9.20;96.40;;;;;;4987112;28;20026;-79
2023/03/18 09:04:30;;;;;;;9.75;5.72;;;9.20;97.10;;;;;;4976399;28;20399;-79
2023/03/18 09:06:56;;;;;;;8.35;5.43;;;9.30;96.40;;;;;;4956034;28;20034;-78
2023/03/18 09:09:22;;;;;;;7.88;4.85;;;9.40;96.40;;;;;;4957221;28;20137;-78
2023/03/18 09:11:48;;;;;;;9.80;5.97;;;9.50;96.70;;;;;;4950430;28;20035;-79
2023/03/18 09:14:14;;;;;;;9.75;5.53;;;9.60;95.80;;;;;;4969249;28;20042;-79
2023/03/18 09:16:40;;;;;;;9.43;5.03;;;9.70;96.30;;;;;;4969914;28;20117;-78
2023/03/18 09:19:06;;;;;;;9.23;5.35;;;9.60;96.10;;;;;;4965463;28;20493;-79
2023/03/18 09:21:32;;;;;;;11.27;5.50;;;9.80;96.40;;;;;;4988390;28;20030;-79
2023/03/18 09:23:58;;;;;;;8.73;5.40;;;9.80;97.10;;;;;;4984754;28;20030;-79
2023/03/18 09:26:23;;;;;;;8.60;6.13;;;9.90;95.90;;;;;;4970531;28;20051;-79
2023/03/18 09:28:49;;;;;;;8.27;5.13;;;10.00;95.00;;;;;;4963269;28;20058;-78
2023/03/18 09:31:15;;;;;;;6.90;4.97;;;10.00;95.80;;;;;;4958462;28;20045;-79
2023/03/18 09:33:42;;;;;;;9.68;5.68;;;10.10;95.90;;;;;;4981652;28;20066;-79
2023/03/18 09:36:08;;;;;;;9.70;5.30;;;10.20;95.40;;;;;;4963702;28;20121;-77
2023/03/18 09:38:35;;;;;;;11.77;5.35;;;10.20;95.20;;;;;;4982354;28;20100;-78
2023/03/18 09:41:17;;;;;;;7.85;5.30;;;10.40;95.30;;;;;;4974114;28;20514;-78
2023/03/18 09:44:01;;;;;;;7.05;5.30;;;10.50;96.30;;;;;;4982178;28;20081;-78
2023/03/18 09:46:35;;;;;;;7.13;4.70;;;10.60;95.00;;;;;;4982319;28;20026;-79
2023/03/18 09:49:37;;;;;;;8.82;4.97;;;10.70;94.30;;;;;;4982090;28;20030;-79
2023/03/18 09:52:45;;;;;;;7.68;5.00;;;10.80;94.10;;;;;;4973330;28;20403;-77
2023/03/18 09:55:38;;;;;;;12.27;5.45;;;10.90;95.20;;;;;;4929333;28;20039;-79
2023/03/18 09:58:19;;;;;;;8.35;5.30;;;11.10;94.60;;;;;;4986166;28;20039;-78
2023/03/18 10:00:45;;;;;;;9.43;4.88;;;11.20;95.20;;;;;;4984645;28;20391;-79
2023/03/18 10:03:29;;;;;;;8.77;5.43;;;11.30;95.10;;;;;;4974104;28;20066;-78
2023/03/18 10:06:17;;;;;;;9.63;5.60;;;11.40;94.40;;;;;;4982391;28;20109;-78
2023/03/18 10:09:00;;;;;;;9.68;5.53;;;11.50;93.70;;;;;;4979051;28;20476;-78
2023/03/18 10:11:35;;;;;;;12.27;5.78;;;11.50;93.40;;;;;;4979196;28;20093;-79
2023/03/18 10:14:32;;;;;;;8.95;5.38;;;11.50;95.00;;;;;;4981425;28;20030;-79
2023/03/18 10:17:24;;;;;;;10.70;5.47;;;11.60;95.00;;;;;;4969471;28;20036;-80
2023/03/18 10:19:53;;;;;;;8.40;5.25;;;11.80;94.70;;;;;;4971241;28;20033;-79
2023/03/18 10:22:39;;;;;;;9.15;4.82;;;11.90;94.20;;;;;;4972996;28;20483;-79
2023/03/18 10:25:38;;;;;;;8.23;5.25;;;12.00;93.80;;;;;;4982321;28;20098;-78
2023/03/18 10:28:38;;;;;;;10.07;5.07;;;12.10;93.70;;;;;;4983488;28;20119;-79
2023/03/18 10:31:39;;;;;;;10.30;5.47;;;12.20;94.20;;;;;;4975143;28;20031;-79
2023/03/18 10:34:10;;;;;;;9.02;5.63;;;12.30;93.20;;;;;;4985772;28;20042;-79
2023/03/18 10:36:51;;;;;;;8.82;6.00;;;12.40;93.70;;;;;;4960540;28;20038;-79
2023/03/18 10:39:21;;;;;;;9.73;5.65;;;12.40;93.70;;;;;;4982361;28;20030;-78
2023/03/18 10:41:49;;;;;;;8.45;5.60;;;12.50;93.60;;;;;;4982201;28;20039;-77
2023/03/18 10:44:23;;;;;;;11.20;5.80;;;12.50;93.40;;;;;;4978995;28;20092;-77
2023/03/18 10:47:06;;;;;;;9.98;5.82;;;12.60;94.50;;;;;;4975429;28;20037;-79
2023/03/18 10:49:37;;;;;;;10.70;5.57;;;12.80;94.10;;;;;;4964114;28;20065;-78
2023/03/18 10:52:12;;;;;;;7.43;5.32;;;12.90;93.60;;;;;;4979472;28;20038;-79
2023/03/18 10:54:40;;;;;;;;;;;13.00;93.40;;;;;;4969591;28;20042;-79
2023/03/18 10:57:11;;;;;;;9.05;5.25;;;13.00;92.50;;;;;;4959759;28;19921;-78
2023/03/18 10:59:38;;;;;;;8.55;5.35;;;13.10;93.70;;;;;;4973123;28;20026;-78
2023/03/18 11:02:18;;;;;;;8.30;5.32;;;13.10;94.30;;;;;;4963309;28;20053;-78
2023/03/18 11:04:51;;;;;;;8.13;5.55;;;13.30;93.50;;;;;;4963004;28;20034;-78
2023/03/18 11:07:27;;;;;;;7.32;5.43;;;13.40;93.30;;;;;;4962155;28;20039;-78
2023/03/18 11:09:54;;;;;;;8.18;5.25;;;13.60;93.90;;;;;;4963464;28;20034;-78
2023/03/18 11:12:27;;;;;;;7.43;5.05;;;13.70;92.50;;;;;;4975861;28;20023;-78
2023/03/18 11:14:53;;;;;;;9.07;5.30;;;13.80;92.70;;;;;;4938518;28;20039;-78
2023/03/18 11:17:34;;;;;;;7.72;4.70;;;13.90;92.20;;;;;;4976102;28;20034;-78
2023/03/18 11:20:23;;;;;;;8.57;4.93;;;14.00;91.40;;;;;;4974960;28;20033;-78
2023/03/18 11:22:51;;;;;;;10.65;4.35;;;14.00;91.10;;;;;;4970582;28;20123;-78
2023/03/18 11:25:23;;;;;;;8.65;4.85;;;13.90;91.60;;;;;;4967955;28;20035;-78
2023/03/18 11:27:51;;;;;;;7.85;4.72;;;14.00;91.20;;;;;;4978582;28;20081;-78
2023/03/18 11:30:24;;;;;;;6.93;4.72;;;14.00;91.60;;;;;;4966522;28;20073;-78
2023/03/18 11:32:53;;;;;;;8.38;4.88;;;14.10;90.70;;;;;;4975853;28;20041;-78
2023/03/18 11:35:22;;;;;;;9.68;5.05;;;14.20;90.20;;;;;;4972829;28;20026;-78
2023/03/18 11:37:49;;;;;;;7.82;4.70;;;14.30;90.60;;;;;;4976904;28;20069;-78
2023/03/18 11:40:17;;;;;;;9.43;4.95;;;14.30;90.60;;;;;;4981012;28;20111;-79
2023/03/18 11:42:45;;;;;;;7.43;4.95;;;14.40;90.20;;;;;;4975006;28;20404;-78
2023/03/18 11:45:49;;;;;;;8.35;4.32;;;14.40;90.50;;;;;;4971132;28;20027;-78
2023/03/18 11:48:40;;;;;;;6.35;4.07;;;14.50;90.90;;;;;;4957115;28;20093;-79
2023/03/18 11:51:27;;;;;;;10.07;4.30;;;14.50;89.50;;;;;;4967280;28;20420;-78
2023/03/18 11:54:02;;;;;;;10.60;4.15;;;14.60;90.00;;;;;;4978462;28;20022;-78
2023/03/18 11:56:56;;;;;;;6.18;4.30;;;14.80;90.00;;;;;;4970696;28;20031;-80
2023/03/18 11:59:38;;;;;;;10.35;5.07;;;15.00;88.00;;;;;;4983170;28;20039;-79
2023/03/18 12:02:28;;;;;;;5.43;3.83;;;15.20;88.60;;;;;;4945143;28;20034;-78
2023/03/18 12:05:18;;;;;;;14.20;5.40;;;15.40;87.20;;;;;;4965663;28;20098;-80
2023/03/18 12:08:17;;;;;;;9.82;4.43;;;15.70;86.40;;;;;;4982163;28;20468;-77
2023/03/18 12:10:57;;;;;;;8.00;4.53;;;15.90;84.50;;;;;;4967334;28;20082;-77
2023/03/18 12:13:36;;;;;;;10.70;5.93;;;15.90;83.10;;;;;;4966798;28;20037;-78
2023/03/18 12:16:08;;;;;;;6.80;4.63;;;15.90;85.20;;;;;;4968282;28;20551;-77
2023/03/18 12:18:50;;;;;;;9.07;4.43;;;15.90;83.80;;;;;;4974994;28;20062;-78
2023/03/18 12:21:22;;;;;;;9.60;5.35;;;15.90;85.80;;;;;;4957182;28;20361;-78
2023/03/18 12:24:26;;;;;;;9.07;4.57;;;15.90;82.50;;;;;;4964702;28;20107;-78
2023/03/18 12:26:59;;;;;;;7.70;4.40;;;15.90;83.40;;;;;;4915592;29;20523;-78
2023/03/18 12:29:55;;;;;;;7.82;4.30;;;16.00;83.20;;;;;;4965228;28;20117;-77
2023/03/18 12:32:44;;;;;;;5.70;3.92;;;16.00;83.20;;;;;;4977946;28;20173;-79
2023/03/18 12:35:38;;;;;;;8.90;4.43;;;15.90;84.00;;;;;;4979769;28;20034;-79
2023/03/18 12:38:31;;;;;;;6.30;3.83;;;16.00;84.60;;;;;;4985105;28;20045;-79
2023/03/18 12:41:09;;;;;;;10.45;4.20;;;16.00;81.90;;;;;;4970443;28;20031;-78
2023/03/18 12:43:55;;;;;;;6.15;4.25;;;16.00;81.30;;;;;;4981837;28;20104;-78
2023/03/18 12:46:33;;;;;;;6.05;3.75;;;15.90;81.90;;;;;;4965263;28;20039;-79
2023/03/18 12:49:16;;;;;;;5.20;3.35;;;15.90;81.20;;;;;;4977497;28;20037;-78
2023/03/18 12:52:06;;;;;;;10.40;4.30;;;16.00;81.20;;;;;;4968732;28;20726;-78
2023/03/18 12:54:55;;;;;;;6.95;3.60;;;15.90;81.10;;;;;;4975492;28;20037;-79
2023/03/18 12:57:29;;;;;;;6.85;3.65;;;15.90;82.50;;;;;;4974695;28;20058;-78
2023/03/18 13:00:05;;;;;;;6.15;3.70;;;16.00;80.80;;;;;;4982293;28;20115;-78
2023/03/18 13:02:43;;;;;;;7.95;3.72;;;16.10;81.20;;;;;;4968562;28;20554;-78
2023/03/18 13:05:33;;;;;;;6.47;3.42;;;16.20;82.30;;;;;;4978502;28;20488;-77
2023/03/18 13:08:20;;;;;;;6.43;3.92;;;16.30;81.80;;;;;;4965896;28;20030;-77
2023/03/18 13:10:52;;;;;;;5.07;3.17;;;16.30;81.50;;;;;;4977908;28;20022;-78
2023/03/18 13:13:21;;;;;;;7.25;3.70;;;16.30;80.30;;;;;;4982182;28;20022;-79